Terminal Aerodrome Forecast
Issued by NWS Louisville, KY

Home | Current Version | Previous Version | Text Only | Print | Product List | Glossary On
Versions: 1 2 3 4 5 6 7 8 9 10 11 12 13 14 15 16 17 18 19 20 21 22 23 24 25 26 27
063
FTUS43 KLMK 161858 AAA
TAFSDF
TAF AMD
KSDF 161858Z 1619/1724 14005KT P6SM VCSH OVC050
     FM170100 16006KT 5SM -SHRA OVC050
     FM170600 19008KT 4SM -SHRA VCTS OVC015CB
     FM171200 21010KT 6SM -SHRA BR OVC010
     FM171600 24012G20KT P6SM VCSH BKN025=

USA.gov is the U.S. government's official web portal to all federal, state and local government web resources and services.